createdAt,value
2023-01-17T00:02:09.800Z,29.27
2023-01-17T00:04:55.485Z,26.30
2023-01-17T00:07:42.256Z,26.70
2023-01-17T00:10:15.174Z,25.97
2023-01-17T00:12:53.695Z,28.53
2023-01-17T00:15:23.196Z,27.80
2023-01-17T00:17:50.650Z,26.83
2023-01-17T00:20:41.628Z,28.73
2023-01-17T00:23:34.725Z,30.87
2023-01-17T00:26:04.882Z,27.23
2023-01-17T00:28:37.778Z,29.67
2023-01-17T00:31:06.817Z,26.83
2023-01-17T00:33:33.632Z,27.70
2023-01-17T00:36:01.858Z,29.27
2023-01-17T00:38:31.154Z,30.70
2023-01-17T00:41:05.228Z,28.33
2023-01-17T00:43:50.901Z,28.50
2023-01-17T00:46:37.362Z,29.70
2023-01-17T00:49:23.658Z,31.63
2023-01-17T00:52:09.910Z,32.07
2023-01-17T00:54:55.458Z,30.70
2023-01-17T00:57:41.139Z,33.30
2023-01-17T01:00:27.641Z,31.47
2023-01-17T01:03:13.168Z,33.37
2023-01-17T01:05:58.693Z,37.27
2023-01-17T01:08:47.016Z,35.90
2023-01-17T01:11:39.250Z,32.10
2023-01-17T01:14:28.447Z,34.73
2023-01-17T01:17:13.774Z,34.27
2023-01-17T01:19:59.282Z,34.73
2023-01-17T01:22:44.907Z,32.63
2023-01-17T01:25:30.379Z,30.20
2023-01-17T01:28:42.210Z,32.90
2023-01-17T01:31:27.912Z,32.93
2023-01-17T01:33:54.772Z,34.27
2023-01-17T01:36:21.729Z,31.60
2023-01-17T01:38:50.237Z,31.93
2023-01-17T01:41:17.814Z,30.10
2023-01-17T01:43:47.629Z,34.60
2023-01-17T01:46:17.002Z,29.70
2023-01-17T01:49:25.110Z,30.17
2023-01-17T01:51:58.570Z,34.33
2023-01-17T01:54:31.228Z,29.00
2023-01-17T01:57:02.920Z,31.33
2023-01-17T01:59:31.041Z,31.53
2023-01-17T02:01:58.333Z,32.60
2023-01-17T02:04:27.382Z,33.70
2023-01-17T02:07:03.624Z,31.20
2023-01-17T02:09:30.484Z,33.23
2023-01-17T02:11:57.880Z,32.83
2023-01-17T02:14:24.639Z,35.97
2023-01-17T02:16:54.515Z,32.70
2023-01-17T02:19:27.152Z,32.53
2023-01-17T02:22:15.545Z,31.50
2023-01-17T02:25:04.106Z,36.87
2023-01-17T02:27:53.677Z,36.90
2023-01-17T02:30:36.065Z,39.23
2023-01-17T02:33:16.117Z,35.33
2023-01-17T02:35:49.025Z,33.43
2023-01-17T02:38:53.913Z,36.77
2023-01-17T02:41:29.545Z,36.27
2023-01-17T02:43:56.622Z,35.17
2023-01-17T02:46:23.395Z,35.47
2023-01-17T02:48:51.799Z,38.10
2023-01-17T02:51:18.549Z,38.83
2023-01-17T02:54:28.617Z,41.77
2023-01-17T02:57:06.616Z,41.13
2023-01-17T03:00:15.157Z,42.00
2023-01-17T03:03:13.711Z,40.53
2023-01-17T03:05:49.083Z,42.93
2023-01-17T03:08:16.980Z,40.53
2023-01-17T03:10:44.538Z,41.33
2023-01-17T03:13:11.352Z,42.10
2023-01-17T03:15:39.260Z,42.43
2023-01-17T03:18:11.488Z,45.70
2023-01-17T03:20:38.667Z,45.23
2023-01-17T03:23:05.528Z,43.23
2023-01-17T03:25:32.520Z,38.20
2023-01-17T03:27:59.314Z,40.20
2023-01-17T03:30:26.387Z,47.83
2023-01-17T03:32:53.265Z,40.53
2023-01-17T03:35:20.339Z,40.10
2023-01-17T03:37:47.164Z,40.00
2023-01-17T03:40:14.264Z,45.23
2023-01-17T03:42:41.033Z,43.53
2023-01-17T03:45:08.684Z,39.80
2023-01-17T03:47:36.233Z,46.50
2023-01-17T03:50:03.733Z,44.13
2023-01-17T03:52:30.577Z,42.97
2023-01-17T03:54:57.661Z,47.77
2023-01-17T03:57:24.502Z,44.47
2023-01-17T03:59:51.559Z,43.37
2023-01-17T04:02:18.631Z,40.90
2023-01-17T04:04:45.804Z,42.40
2023-01-17T04:07:12.538Z,43.13
2023-01-17T04:09:39.488Z,39.57
2023-01-17T04:12:06.444Z,41.90
2023-01-17T04:14:33.465Z,44.97
2023-01-17T04:17:00.259Z,43.80
2023-01-17T04:19:27.595Z,43.10
2023-01-17T04:21:54.285Z,44.80
2023-01-17T04:24:21.315Z,45.03
2023-01-17T04:26:48.033Z,43.57
2023-01-17T04:29:14.987Z,47.33
2023-01-17T04:31:41.810Z,46.37
2023-01-17T04:34:08.857Z,45.33
2023-01-17T04:36:35.778Z,41.80
2023-01-17T04:39:02.923Z,41.83
2023-01-17T04:41:29.739Z,48.57
2023-01-17T04:43:56.744Z,42.30
2023-01-17T04:46:24.082Z,47.23
2023-01-17T04:48:51.209Z,43.20
2023-01-17T04:51:17.944Z,46.93
2023-01-17T04:53:44.984Z,46.70
2023-01-17T04:56:11.751Z,49.23
2023-01-17T04:58:38.736Z,49.13
2023-01-17T05:01:07.911Z,53.00
2023-01-17T05:03:35.377Z,47.93
2023-01-17T05:06:02.445Z,46.07
2023-01-17T05:08:29.475Z,49.97
2023-01-17T05:10:56.215Z,50.30
2023-01-17T05:13:23.283Z,47.90
2023-01-17T05:15:50.487Z,49.87
2023-01-17T05:18:18.888Z,49.63
2023-01-17T05:20:45.730Z,49.93
2023-01-17T05:23:12.793Z,45.73
2023-01-17T05:25:44.493Z,47.50
2023-01-17T05:28:13.066Z,52.80
2023-01-17T05:30:40.043Z,49.53
2023-01-17T05:33:08.237Z,51.17
2023-01-17T05:35:35.131Z,47.70
2023-01-17T05:38:02.360Z,44.97
2023-01-17T05:40:31.495Z,46.77
2023-01-17T05:43:00.429Z,45.17
2023-01-17T05:45:29.360Z,48.30
2023-01-17T05:47:56.850Z,47.57
2023-01-17T05:50:29.540Z,45.37
2023-01-17T05:53:05.638Z,45.13
2023-01-17T05:55:33.263Z,47.93
2023-01-17T05:58:01.064Z,43.13
2023-01-17T06:00:28.804Z,45.63
2023-01-17T06:02:57.581Z,44.93
2023-01-17T06:05:25.805Z,46.03
2023-01-17T06:07:52.833Z,46.80
2023-01-17T06:10:20.936Z,48.77
2023-01-17T06:12:48.824Z,48.20
2023-01-17T06:15:17.991Z,49.23
2023-01-17T06:17:45.125Z,53.60
2023-01-17T06:20:12.595Z,60.43
2023-01-17T06:22:39.776Z,55.40
2023-01-17T06:25:07.455Z,52.27
2023-01-17T06:27:34.522Z,53.13
2023-01-17T06:30:01.378Z,57.93
2023-01-17T06:32:28.487Z,59.83
2023-01-17T06:34:55.195Z,65.40
2023-01-17T06:37:22.374Z,63.27
2023-01-17T06:39:51.220Z,68.73
2023-01-17T06:42:21.350Z,65.80
2023-01-17T06:44:48.104Z,66.70
2023-01-17T06:47:15.091Z,61.00
2023-01-17T06:49:41.788Z,61.30
2023-01-17T06:52:08.866Z,59.80
2023-01-17T06:54:35.632Z,60.00
2023-01-17T06:57:02.683Z,55.70
2023-01-17T06:59:29.473Z,58.93
2023-01-17T07:01:56.547Z,63.07
2023-01-17T07:04:23.422Z,57.47
2023-01-17T07:06:50.402Z,60.60
2023-01-17T07:09:17.243Z,61.27
2023-01-17T07:11:45.398Z,58.37
2023-01-17T07:14:13.770Z,58.00
2023-01-17T07:16:45.228Z,58.53
2023-01-17T07:19:12.347Z,55.00
2023-01-17T07:21:40.273Z,57.27
2023-01-17T07:24:07.623Z,59.90
2023-01-17T07:26:37.673Z,55.33
2023-01-17T07:29:05.243Z,57.97
2023-01-17T07:31:38.054Z,52.07
2023-01-17T07:34:05.075Z,50.50
2023-01-17T07:36:32.373Z,54.80
2023-01-17T07:38:59.077Z,52.53
2023-01-17T07:41:26.216Z,51.43
2023-01-17T07:43:54.895Z,48.33
2023-01-17T07:46:23.359Z,50.67
2023-01-17T07:48:50.165Z,48.10
2023-01-17T07:51:18.570Z,49.33
2023-01-17T07:53:45.337Z,47.83
2023-01-17T07:56:12.538Z,47.57
2023-01-17T07:58:39.235Z,47.97
2023-01-17T08:01:12.483Z,46.53
2023-01-17T08:03:40.260Z,42.33
2023-01-17T08:06:22.026Z,47.33
2023-01-17T08:08:49.073Z,46.30
2023-01-17T08:11:16.319Z,46.97
2023-01-17T08:13:43.054Z,43.73
2023-01-17T08:16:11.380Z,41.10
2023-01-17T08:18:38.545Z,42.80
2023-01-17T08:21:13.311Z,44.40
2023-01-17T08:23:40.027Z,44.43
2023-01-17T08:26:07.087Z,41.47
2023-01-17T08:28:34.520Z,40.43
2023-01-17T08:31:09.602Z,42.60
2023-01-17T08:33:36.827Z,41.27
2023-01-17T08:36:03.896Z,37.13
2023-01-17T08:38:30.583Z,37.00
2023-01-17T08:41:00.910Z,35.03
2023-01-17T08:43:27.780Z,39.93
2023-01-17T08:45:56.085Z,36.40
2023-01-17T08:48:23.703Z,37.30
2023-01-17T08:50:50.838Z,31.07
2023-01-17T08:53:21.484Z,33.40
2023-01-17T08:55:48.715Z,33.30
2023-01-17T08:58:15.466Z,30.20
2023-01-17T09:00:42.448Z,34.43
2023-01-17T09:03:14.423Z,33.03
2023-01-17T09:05:41.530Z,33.03
2023-01-17T09:08:08.313Z,27.47
2023-01-17T09:10:35.359Z,30.10
2023-01-17T09:13:02.145Z,30.73
2023-01-17T09:15:29.258Z,29.93
2023-01-17T09:17:57.099Z,25.37
2023-01-17T09:20:30.059Z,28.67
2023-01-17T09:22:57.601Z,28.70
2023-01-17T09:25:24.800Z,28.60
2023-01-17T09:27:51.573Z,27.53
2023-01-17T09:30:18.642Z,24.53
2023-01-17T09:32:52.176Z,21.90
2023-01-17T09:35:19.237Z,24.47
2023-01-17T09:37:49.178Z,23.03
2023-01-17T09:40:24.199Z,29.63
2023-01-17T09:42:58.063Z,22.23
2023-01-17T09:45:29.030Z,24.23
2023-01-17T09:47:56.360Z,21.37
2023-01-17T09:50:23.306Z,21.70
2023-01-17T09:52:50.436Z,25.83
2023-01-17T09:55:18.018Z,24.93
2023-01-17T09:57:59.914Z,24.67
2023-01-17T10:00:55.324Z,21.73
2023-01-17T10:03:31.706Z,22.33
2023-01-17T10:06:22.484Z,19.47
2023-01-17T10:09:03.718Z,20.17
2023-01-17T10:11:43.319Z,19.83
2023-01-17T10:14:25.628Z,22.43
2023-01-17T10:17:16.158Z,23.77
2023-01-17T10:20:15.393Z,20.47
2023-01-17T10:23:31.612Z,19.30
2023-01-17T10:26:02.956Z,20.00
2023-01-17T10:28:49.277Z,18.47
2023-01-17T10:31:40.878Z,17.27
2023-01-17T10:34:19.248Z,15.70
2023-01-17T10:36:51.878Z,18.30
2023-01-17T10:39:28.346Z,14.17
2023-01-17T10:41:59.475Z,16.27
2023-01-17T10:44:41.813Z,19.10
2023-01-17T10:47:20.439Z,14.73
2023-01-17T10:49:58.340Z,15.30
2023-01-17T10:52:27.731Z,14.07
2023-01-17T10:55:15.707Z,13.67
2023-01-17T10:57:44.809Z,10.87
2023-01-17T11:00:30.810Z,14.23
2023-01-17T11:03:00.110Z,15.03
2023-01-17T11:05:31.476Z,14.27
2023-01-17T11:08:06.089Z,14.83
2023-01-17T11:10:57.218Z,12.20
2023-01-17T11:13:34.326Z,12.83
2023-01-17T11:16:06.187Z,14.67
2023-01-17T11:18:36.274Z,12.30
2023-01-17T11:21:09.526Z,14.30
2023-01-17T11:23:36.324Z,12.13
2023-01-17T11:26:07.586Z,13.97
2023-01-17T11:28:39.951Z,13.87
2023-01-17T11:31:27.317Z,14.87
2023-01-17T11:34:33.077Z,13.43
2023-01-17T11:37:18.242Z,11.70
2023-01-17T11:39:48.153Z,12.73
2023-01-17T11:42:34.843Z,9.97
2023-01-17T11:45:27.716Z,14.93
2023-01-17T11:48:07.990Z,12.40
2023-01-17T11:50:37.705Z,11.20
2023-01-17T11:53:25.077Z,12.37
2023-01-17T11:56:18.362Z,12.87
2023-01-17T11:58:47.171Z,10.30
2023-01-17T12:01:22.886Z,10.70
2023-01-17T12:03:59.330Z,7.97
2023-01-17T12:06:57.130Z,9.13
2023-01-17T12:09:32.039Z,9.60
2023-01-17T12:12:46.229Z,11.77
2023-01-17T12:15:22.359Z,12.20
2023-01-17T12:18:19.196Z,8.50
2023-01-17T12:20:55.301Z,11.30
2023-01-17T12:23:40.592Z,9.30
2023-01-17T12:26:19.658Z,7.23
2023-01-17T12:28:56.959Z,11.93
2023-01-17T12:31:33.525Z,6.93
2023-01-17T12:34:19.094Z,7.20
2023-01-17T12:36:53.764Z,8.20
2023-01-17T12:39:26.115Z,4.90
2023-01-17T12:42:25.508Z,6.03
2023-01-17T12:44:55.662Z,6.60
2023-01-17T12:47:22.737Z,5.47
2023-01-17T12:50:07.804Z,5.07
2023-01-17T12:52:49.336Z,6.37
2023-01-17T12:55:21.626Z,8.63
2023-01-17T12:57:56.507Z,5.97
2023-01-17T13:00:26.730Z,6.13
2023-01-17T13:03:07.671Z,6.83
2023-01-17T13:05:41.734Z,7.63
2023-01-17T13:08:19.789Z,8.80
2023-01-17T13:11:20.663Z,6.47
2023-01-17T13:13:51.328Z,6.43
2023-01-17T13:16:27.284Z,7.00
2023-01-17T13:18:56.866Z,6.10
2023-01-17T13:21:31.268Z,9.30
2023-01-17T13:24:05.958Z,8.80
2023-01-17T13:26:36.540Z,6.07
2023-01-17T13:29:40.747Z,7.13
2023-01-17T13:32:19.625Z,6.30
2023-01-17T13:35:21.209Z,4.50
2023-01-17T13:37:51.002Z,7.30
2023-01-17T13:40:24.956Z,7.27
2023-01-17T13:43:05.303Z,6.73
2023-01-17T13:45:35.768Z,4.87
2023-01-17T13:48:11.992Z,7.90
2023-01-17T13:50:58.388Z,7.67
2023-01-17T13:53:33.966Z,8.30
2023-01-17T13:56:25.909Z,5.27
2023-01-17T13:58:57.588Z,6.63
2023-01-17T14:01:24.751Z,6.17
2023-01-17T14:03:51.827Z,5.07
2023-01-17T14:06:46.041Z,5.50
2023-01-17T14:09:12.848Z,7.13
2023-01-17T14:12:07.128Z,7.43
2023-01-17T14:14:39.956Z,7.60
2023-01-17T14:17:16.246Z,7.37
2023-01-17T14:19:53.154Z,4.50
2023-01-17T14:22:20.116Z,6.33
2023-01-17T14:25:09.746Z,19.30
2023-01-17T14:27:46.041Z,15.93
2023-01-17T14:30:26.724Z,10.93
2023-01-17T14:33:00.898Z,7.07
2023-01-17T14:35:30.664Z,11.53
2023-01-17T14:37:57.756Z,6.10
2023-01-17T14:40:29.470Z,6.23
2023-01-17T14:43:03.395Z,7.23
2023-01-17T14:45:33.169Z,6.03
2023-01-17T14:48:03.083Z,7.63
2023-01-17T14:50:36.617Z,7.00
2023-01-17T14:53:12.580Z,10.73
2023-01-17T14:55:48.168Z,9.80
2023-01-17T14:58:27.734Z,7.57
2023-01-17T15:01:23.817Z,6.77
2023-01-17T15:03:53.933Z,7.43
2023-01-17T15:06:38.695Z,8.67
2023-01-17T15:09:21.074Z,7.53
2023-01-17T15:11:50.041Z,10.23
2023-01-17T15:14:24.393Z,7.47
2023-01-17T15:16:54.075Z,9.03
2023-01-17T15:19:22.347Z,8.47
2023-01-17T15:21:52.656Z,7.30
2023-01-17T15:24:24.155Z,11.43
2023-01-17T15:26:51.291Z,19.17
2023-01-17T15:29:32.442Z,9.73
2023-01-17T15:32:00.094Z,6.33
2023-01-17T15:34:37.046Z,10.93
2023-01-17T15:37:08.033Z,9.07
2023-01-17T15:39:39.177Z,7.50
2023-01-17T15:42:15.397Z,8.27
2023-01-17T15:44:48.948Z,8.03
2023-01-17T15:47:38.521Z,10.53
2023-01-17T15:50:32.249Z,9.43
2023-01-17T15:53:05.478Z,7.20
2023-01-17T15:55:35.131Z,7.83
2023-01-17T15:58:03.400Z,8.07
2023-01-17T16:00:37.616Z,6.57
2023-01-17T16:03:22.215Z,5.20
2023-01-17T16:05:50.574Z,7.70
2023-01-17T16:08:38.695Z,7.43
2023-01-17T16:11:07.845Z,11.43
2023-01-17T16:13:38.532Z,8.63
2023-01-17T16:16:13.471Z,7.80
2023-01-17T16:18:41.025Z,9.93
2023-01-17T16:21:18.740Z,11.57
2023-01-17T16:23:45.930Z,8.30
2023-01-17T16:26:12.941Z,13.67
2023-01-17T16:28:39.691Z,12.57
2023-01-17T16:31:06.896Z,14.03
2023-01-17T16:33:34.717Z,18.23
2023-01-17T16:36:01.774Z,9.07
2023-01-17T16:38:28.516Z,6.60
2023-01-17T16:40:55.556Z,8.40
2023-01-17T16:43:22.336Z,7.53
2023-01-17T16:45:53.100Z,7.23
2023-01-17T16:48:20.941Z,9.67
2023-01-17T16:50:50.871Z,9.03
2023-01-17T16:53:24.466Z,6.27
2023-01-17T16:55:55.540Z,7.60
2023-01-17T16:58:22.970Z,7.40
2023-01-17T17:00:50.240Z,6.17
2023-01-17T17:03:18.725Z,6.53
2023-01-17T17:05:53.817Z,6.97
2023-01-17T17:08:20.615Z,6.43
2023-01-17T17:10:47.590Z,6.63
2023-01-17T17:13:14.323Z,6.47
2023-01-17T17:15:43.877Z,6.27
2023-01-17T17:18:15.758Z,8.03
2023-01-17T17:20:43.853Z,7.43
2023-01-17T17:23:10.829Z,8.60
2023-01-17T17:25:38.602Z,6.13
2023-01-17T17:28:05.880Z,8.13
2023-01-17T17:30:33.473Z,7.80
2023-01-17T17:33:00.334Z,7.97
2023-01-17T17:35:27.380Z,8.50
2023-01-17T17:37:54.499Z,7.20
2023-01-17T17:40:21.947Z,8.03
2023-01-17T17:42:48.649Z,7.80
2023-01-17T17:45:15.796Z,11.50
2023-01-17T17:47:42.534Z,8.97
2023-01-17T17:50:10.156Z,10.53
2023-01-17T17:52:36.930Z,8.93
2023-01-17T17:55:04.676Z,10.33
2023-01-17T17:57:31.550Z,9.80
2023-01-17T17:59:59.725Z,11.63
2023-01-17T18:02:26.475Z,15.07
2023-01-17T18:04:53.732Z,10.73
2023-01-17T18:07:20.683Z,10.33
2023-01-17T18:09:47.653Z,19.03
2023-01-17T18:12:14.488Z,18.10
2023-01-17T18:14:41.467Z,12.80
2023-01-17T18:17:08.165Z,12.07
2023-01-17T18:19:35.154Z,12.80
2023-01-17T18:22:03.420Z,30.60
2023-01-17T18:24:30.505Z,13.80
2023-01-17T18:26:57.808Z,23.77
2023-01-17T18:29:26.597Z,14.67
2023-01-17T18:31:54.304Z,18.43
2023-01-17T18:34:29.101Z,19.43
2023-01-17T18:36:56.829Z,14.63
2023-01-17T18:39:27.038Z,14.50
2023-01-17T18:41:54.700Z,13.20
2023-01-17T18:44:22.557Z,12.57
2023-01-17T18:46:50.759Z,13.37
2023-01-17T18:49:19.312Z,12.07
2023-01-17T18:51:50.460Z,17.77
2023-01-17T18:54:19.199Z,15.90
2023-01-17T18:56:46.230Z,17.87
2023-01-17T18:59:14.516Z,13.93
2023-01-17T19:01:43.548Z,14.47
2023-01-17T19:04:13.331Z,13.40
2023-01-17T19:06:42.870Z,13.17
2023-01-17T19:09:11.686Z,14.87
2023-01-17T19:11:38.576Z,15.80
2023-01-17T19:14:06.710Z,13.30
2023-01-17T19:16:39.108Z,11.87
2023-01-17T19:19:10.062Z,11.33
2023-01-17T19:21:37.176Z,15.07
2023-01-17T19:24:04.640Z,13.53
2023-01-17T19:26:31.391Z,16.77
2023-01-17T19:29:04.931Z,15.23
2023-01-17T19:31:35.712Z,13.17
2023-01-17T19:34:02.884Z,14.03
2023-01-17T19:36:34.327Z,15.23
2023-01-17T19:39:05.555Z,13.93
2023-01-17T19:41:40.224Z,16.83
2023-01-17T19:44:08.998Z,18.27
2023-01-17T19:46:36.730Z,17.07
2023-01-17T19:49:06.654Z,21.23
2023-01-17T19:51:33.562Z,16.53
2023-01-17T19:54:01.707Z,17.73
2023-01-17T19:56:29.182Z,15.70
2023-01-17T19:59:00.775Z,14.90
2023-01-17T20:01:30.170Z,20.67
2023-01-17T20:03:58.644Z,15.00
2023-01-17T20:06:32.302Z,16.10
2023-01-17T20:08:59.349Z,14.67
2023-01-17T20:11:27.643Z,16.43
2023-01-17T20:13:56.481Z,15.63
2023-01-17T20:16:25.332Z,17.07
2023-01-17T20:18:52.679Z,16.23
2023-01-17T20:21:25.141Z,14.20
2023-01-17T20:23:54.451Z,14.57
2023-01-17T20:26:25.491Z,14.77
2023-01-17T20:28:53.333Z,22.13
2023-01-17T20:31:22.894Z,19.17
2023-01-17T20:33:50.789Z,21.40
2023-01-17T20:36:20.245Z,17.17
2023-01-17T20:38:48.675Z,21.53
2023-01-17T20:41:23.046Z,30.10
2023-01-17T20:43:55.149Z,31.90
2023-01-17T20:46:24.933Z,21.33
2023-01-17T20:48:55.483Z,18.63
2023-01-17T20:51:25.147Z,21.63
2023-01-17T20:53:55.940Z,20.73
2023-01-17T20:56:24.073Z,22.57
2023-01-17T20:58:52.039Z,21.23
2023-01-17T21:01:19.628Z,26.07
2023-01-17T21:03:49.280Z,25.57
2023-01-17T21:06:16.083Z,23.33
2023-01-17T21:08:44.910Z,26.60
2023-01-17T21:11:15.235Z,31.33
2023-01-17T21:13:42.750Z,27.97
2023-01-17T21:16:12.729Z,23.87
2023-01-17T21:18:40.025Z,24.43
2023-01-17T21:21:14.911Z,25.30
2023-01-17T21:23:42.709Z,25.27
2023-01-17T21:26:12.119Z,24.80
2023-01-17T21:28:41.439Z,17.83
2023-01-17T21:31:18.084Z,22.83
2023-01-17T21:33:45.581Z,18.57
2023-01-17T21:36:12.823Z,18.90
2023-01-17T21:38:39.854Z,27.10
2023-01-17T21:41:06.589Z,24.07
2023-01-17T21:43:33.591Z,20.20
2023-01-17T21:46:04.761Z,20.30
2023-01-17T21:48:31.958Z,21.57
2023-01-17T21:51:06.405Z,23.00
2023-01-17T21:53:37.868Z,23.77
2023-01-17T21:56:25.007Z,22.37
2023-01-17T21:58:55.315Z,20.50
2023-01-17T22:01:32.089Z,19.87
2023-01-17T22:04:01.229Z,19.50
2023-01-17T22:06:34.416Z,21.90
2023-01-17T22:09:01.567Z,20.97
2023-01-17T22:11:30.365Z,16.30
2023-01-17T22:13:59.126Z,18.70
2023-01-17T22:16:26.377Z,18.67
2023-01-17T22:18:53.491Z,25.80
2023-01-17T22:21:25.244Z,26.23
2023-01-17T22:23:54.665Z,26.30
2023-01-17T22:26:23.811Z,34.67
2023-01-17T22:28:51.213Z,34.70
2023-01-17T22:31:20.895Z,31.73
2023-01-17T22:33:53.317Z,34.13
2023-01-17T22:36:20.564Z,32.47
2023-01-17T22:38:48.078Z,32.27
2023-01-17T22:41:17.159Z,40.60
2023-01-17T22:43:47.034Z,44.10
2023-01-17T22:46:16.906Z,33.27
2023-01-17T22:48:44.673Z,33.03
2023-01-17T22:51:14.696Z,28.43
2023-01-17T22:53:53.606Z,32.10
2023-01-17T22:56:26.862Z,32.10
2023-01-17T22:58:53.956Z,28.13
2023-01-17T23:01:26.044Z,32.23
2023-01-17T23:03:57.011Z,29.33
2023-01-17T23:06:27.222Z,33.73
2023-01-17T23:08:56.637Z,30.93
2023-01-17T23:11:39.477Z,35.03
2023-01-17T23:14:24.517Z,34.70
2023-01-17T23:17:20.124Z,34.27
2023-01-17T23:19:49.574Z,29.63
2023-01-17T23:22:20.977Z,39.23
2023-01-17T23:24:49.810Z,33.50
2023-01-17T23:27:55.105Z,34.03
2023-01-17T23:30:26.327Z,39.27
2023-01-17T23:32:55.958Z,31.67
2023-01-17T23:35:28.993Z,35.13
2023-01-17T23:38:15.345Z,32.57
2023-01-17T23:40:42.747Z,33.90
2023-01-17T23:43:24.435Z,36.13
2023-01-17T23:45:53.610Z,30.60
2023-01-17T23:48:23.562Z,33.73
2023-01-17T23:50:50.803Z,33.23
2023-01-17T23:53:23.080Z,30.70
2023-01-17T23:55:52.394Z,29.90
2023-01-17T23:58:20.483Z,31.77
